Terminal Aerodrome Forecast
Issued by NWS

Home | Current Version | Previous Version | Text Only | Print | Product List | Glossary On
Versions: 1 2 3 4 5 6 7 8 9 10 11 12 13 14 15
000
FTUS45 KGGW 041127
TAFOLF
TAF
KOLF 041127Z 0412/0512 24005KT P6SM SCT110
     FM041800 20005KT P6SM BKN130
     FM050100 20006KT P6SM VCSH OVC035
     FM050400 28011KT P6SM VCSH OVC035
     FM050700 30016KT P6SM VCSH OVC020=

USA.gov is the U.S. government's official web portal to all federal, state and local government web resources and services.